createdAt,value
2023-05-23T00:00:37.072Z,99900.13
2023-05-23T00:03:05.045Z,99902.88
2023-05-23T00:05:32.863Z,99900.97
2023-05-23T00:08:01.617Z,99900.72
2023-05-23T00:10:29.690Z,99903.46
2023-05-23T00:12:58.359Z,99906.28
2023-05-23T00:15:26.078Z,99904.66
2023-05-23T00:17:53.771Z,99905.62
2023-05-23T00:20:21.452Z,99898.84
2023-05-23T00:22:49.620Z,99904.04
2023-05-23T00:25:17.297Z,99896.68
2023-05-23T00:27:44.940Z,99899.34
2023-05-23T00:30:12.670Z,99899.05
2023-05-23T00:32:40.486Z,99896.70
2023-05-23T00:35:08.693Z,99897.67
2023-05-23T00:37:36.347Z,99892.79
2023-05-23T00:40:04.326Z,99891.00
2023-05-23T00:42:33.283Z,99891.70
2023-05-23T00:45:00.891Z,99888.29
2023-05-23T00:47:29.679Z,99886.71
2023-05-23T00:49:57.541Z,99889.91
2023-05-23T00:52:25.751Z,99891.03
2023-05-23T00:54:53.485Z,99889.66
2023-05-23T00:57:21.099Z,99890.19
2023-05-23T00:59:48.728Z,99898.39
2023-05-23T01:02:16.417Z,99896.31
2023-05-23T01:04:44.643Z,99903.98
2023-05-23T01:07:12.764Z,99900.69
2023-05-23T01:09:41.106Z,99903.25
2023-05-23T01:12:26.051Z,99901.42
2023-05-23T01:15:02.895Z,99899.55
2023-05-23T01:17:42.402Z,99904.41
2023-05-23T01:20:27.178Z,99908.02
2023-05-23T01:23:00.664Z,99907.44
2023-05-23T01:25:44.051Z,99905.11
2023-05-23T01:28:20.348Z,99906.48
2023-05-23T01:30:52.754Z,99909.55
2023-05-23T01:33:21.036Z,99908.70
2023-05-23T01:35:49.783Z,99910.12
2023-05-23T01:38:17.511Z,99908.66
2023-05-23T01:40:45.691Z,99916.63
2023-05-23T01:43:13.875Z,99915.98
2023-05-23T01:45:42.408Z,99917.96
2023-05-23T01:48:12.560Z,99918.71
2023-05-23T01:50:41.159Z,99917.26
2023-05-23T01:53:10.402Z,99918.88
2023-05-23T01:55:39.497Z,99918.77
2023-05-23T01:58:09.232Z,99922.85
2023-05-23T02:00:36.836Z,99920.48
2023-05-23T02:03:04.609Z,99918.31
2023-05-23T02:05:33.354Z,99916.15
2023-05-23T02:08:02.541Z,99919.89
2023-05-23T02:10:30.242Z,99918.22
2023-05-23T02:12:57.860Z,99919.30
2023-05-23T02:15:25.572Z,99917.64
2023-05-23T02:17:53.396Z,99918.42
2023-05-23T02:20:21.706Z,99918.87
2023-05-23T02:22:51.025Z,99921.19
2023-05-23T02:25:21.188Z,99916.41
2023-05-23T02:27:48.763Z,99916.70
2023-05-23T02:30:17.080Z,99917.56
2023-05-23T02:32:45.099Z,99909.84
2023-05-23T02:35:13.707Z,99909.97
2023-05-23T02:37:41.472Z,99909.05
2023-05-23T02:40:09.632Z,99909.88
2023-05-23T02:42:37.432Z,99902.10
2023-05-23T02:45:05.518Z,99902.45
2023-05-23T02:47:33.258Z,99897.66
2023-05-23T02:50:01.147Z,99890.98
2023-05-23T02:52:29.368Z,99888.69
2023-05-23T02:54:57.016Z,99887.27
2023-05-23T02:57:24.905Z,99890.01
2023-05-23T02:59:53.993Z,99895.46
2023-05-23T03:02:21.957Z,99898.36
2023-05-23T03:04:51.215Z,99896.20
2023-05-23T03:07:27.712Z,99900.73
2023-05-23T03:10:11.812Z,99904.49
2023-05-23T03:12:39.488Z,99903.48
2023-05-23T03:15:08.819Z,99907.30
2023-05-23T03:17:37.332Z,99911.73
2023-05-23T03:20:06.195Z,99909.42
2023-05-23T03:22:33.819Z,99909.77
2023-05-23T03:25:04.651Z,99908.75
2023-05-23T03:27:34.139Z,99912.43
2023-05-23T03:30:02.974Z,99915.96
2023-05-23T03:32:30.964Z,99916.98
2023-05-23T03:34:58.748Z,99919.39
2023-05-23T03:37:27.055Z,99927.15
2023-05-23T03:39:54.927Z,99929.20
2023-05-23T03:42:26.783Z,99925.92
2023-05-23T03:44:55.054Z,99923.19
2023-05-23T03:47:26.700Z,99919.74
2023-05-23T03:49:55.119Z,99918.20
2023-05-23T03:52:23.485Z,99916.20
2023-05-23T03:54:51.558Z,99913.80
2023-05-23T03:57:19.271Z,99916.80
2023-05-23T03:59:48.729Z,99916.92
2023-05-23T04:02:17.190Z,99913.42
2023-05-23T04:04:49.597Z,99914.31
2023-05-23T04:07:17.355Z,99918.83
2023-05-23T04:09:45.498Z,99917.97
2023-05-23T04:12:14.635Z,99906.65
2023-05-23T04:14:43.518Z,99908.96
2023-05-23T04:17:12.227Z,99904.50
2023-05-23T04:19:40.211Z,99906.26
2023-05-23T04:22:08.211Z,99903.02
2023-05-23T04:24:38.112Z,99903.48
2023-05-23T04:27:06.244Z,99898.81
2023-05-23T04:29:36.293Z,99903.82
2023-05-23T04:32:03.937Z,99900.02
2023-05-23T04:34:34.126Z,99898.82
2023-05-23T04:37:02.818Z,99901.52
2023-05-23T04:39:31.500Z,99902.78
2023-05-23T04:42:18.857Z,99902.95
2023-05-23T04:45:16.096Z,99906.88
2023-05-23T04:48:17.519Z,99902.25
2023-05-23T04:50:48.018Z,99902.59
2023-05-23T04:53:15.784Z,99902.14
2023-05-23T04:55:44.089Z,99902.14
2023-05-23T04:58:15.621Z,99901.92
2023-05-23T05:00:43.699Z,99900.61
2023-05-23T05:03:12.346Z,99904.13
2023-05-23T05:05:46.764Z,99903.84
2023-05-23T05:08:15.310Z,99902.12
2023-05-23T05:10:43.064Z,99901.40
2023-05-23T05:13:12.359Z,99910.07
2023-05-23T05:15:48.254Z,99914.17
2023-05-23T05:18:17.043Z,99912.70
2023-05-23T05:20:46.456Z,99915.43
2023-05-23T05:23:16.342Z,99913.29
2023-05-23T05:25:44.037Z,99911.64
2023-05-23T05:28:12.353Z,99909.41
2023-05-23T05:30:46.863Z,99908.48
2023-05-23T05:33:15.316Z,99907.69
2023-05-23T05:35:43.551Z,99909.54
2023-05-23T05:38:11.379Z,99908.35
2023-05-23T05:40:40.621Z,99910.67
2023-05-23T05:43:10.298Z,99906.16
2023-05-23T05:45:38.178Z,99905.02
2023-05-23T05:48:06.500Z,99911.66
2023-05-23T05:50:40.822Z,99910.16
2023-05-23T05:53:08.941Z,99911.65
2023-05-23T05:55:36.612Z,99914.81
2023-05-23T05:58:04.660Z,99915.73
2023-05-23T06:00:43.901Z,99911.60
2023-05-23T06:03:12.949Z,99911.08
2023-05-23T06:05:48.967Z,99912.65
2023-05-23T06:08:16.612Z,99912.19
2023-05-23T06:10:44.302Z,99911.16
2023-05-23T06:13:12.048Z,99915.89
2023-05-23T06:15:41.243Z,99915.46
2023-05-23T06:18:08.987Z,99916.10
2023-05-23T06:20:37.042Z,99916.77
2023-05-23T06:23:09.057Z,99912.87
2023-05-23T06:25:36.763Z,99908.80
2023-05-23T06:28:04.398Z,99911.13
2023-05-23T06:30:32.401Z,99909.45
2023-05-23T06:33:00.144Z,99900.75
2023-05-23T06:35:27.786Z,99900.08
2023-05-23T06:37:55.386Z,99897.98
2023-05-23T06:40:23.070Z,99899.59
2023-05-23T06:42:51.053Z,99899.27
2023-05-23T06:45:38.598Z,99900.83
2023-05-23T06:48:06.514Z,99904.69
2023-05-23T06:50:36.008Z,99906.67
2023-05-23T06:53:03.816Z,99908.40
2023-05-23T06:55:34.008Z,99909.19
2023-05-23T06:58:04.227Z,99903.92
2023-05-23T07:00:32.190Z,99901.61
2023-05-23T07:03:14.357Z,99903.94
2023-05-23T07:05:42.132Z,99900.39
2023-05-23T07:08:13.478Z,99899.64
2023-05-23T07:10:44.224Z,99900.31
2023-05-23T07:13:28.681Z,99900.18
2023-05-23T07:15:57.058Z,99901.39
2023-05-23T07:18:25.038Z,99899.68
2023-05-23T07:20:52.737Z,99897.93
2023-05-23T07:23:23.912Z,99899.72
2023-05-23T07:26:01.994Z,99898.68
2023-05-23T07:28:47.929Z,99895.92
2023-05-23T07:31:15.556Z,99896.99
2023-05-23T07:33:43.422Z,99894.23
2023-05-23T07:36:12.250Z,99890.77
2023-05-23T07:38:39.960Z,99889.05
2023-05-23T07:41:12.121Z,99889.69
2023-05-23T07:43:41.006Z,99887.21
2023-05-23T07:46:09.103Z,99889.71
2023-05-23T07:48:37.130Z,99888.09
2023-05-23T07:51:05.031Z,99885.84
2023-05-23T07:53:32.688Z,99883.59
2023-05-23T07:56:01.259Z,99881.38
2023-05-23T07:58:31.995Z,99880.56
2023-05-23T08:00:59.764Z,99886.18
2023-05-23T08:03:46.344Z,99884.15
2023-05-23T08:06:19.792Z,99880.73
2023-05-23T08:08:47.606Z,99877.77
2023-05-23T08:11:15.782Z,99873.95
2023-05-23T08:13:46.770Z,99872.85
2023-05-23T08:16:43.871Z,99875.29
2023-05-23T08:19:15.972Z,99877.30
2023-05-23T08:21:44.848Z,99876.75
2023-05-23T08:24:14.909Z,99876.75
2023-05-23T08:26:43.862Z,99880.70
2023-05-23T08:29:13.018Z,99884.63
2023-05-23T08:31:41.705Z,99888.83
2023-05-23T08:34:09.623Z,99882.38
2023-05-23T08:36:40.194Z,99879.02
2023-05-23T08:39:11.777Z,99877.10
2023-05-23T08:41:50.064Z,99878.39
2023-05-23T08:44:17.925Z,99876.26
2023-05-23T08:46:52.704Z,99874.07
2023-05-23T12:46:25.692Z,99760.59
2023-05-23T12:48:54.533Z,99754.27
2023-05-23T12:51:22.241Z,99752.21
2023-05-23T12:53:49.937Z,99753.83
2023-05-23T12:56:18.016Z,99747.94
2023-05-23T12:58:45.747Z,99750.77
2023-05-23T13:01:13.406Z,99751.42
2023-05-23T13:06:31.637Z,99753.90
2023-05-23T13:08:59.330Z,99755.91
2023-05-23T13:11:27.298Z,99762.18
2023-05-23T13:13:55.077Z,99761.00
2023-05-23T13:16:22.946Z,99761.45
2023-05-23T13:18:50.923Z,99759.43
2023-05-23T13:21:18.668Z,99755.45
2023-05-23T13:23:46.355Z,99754.75
2023-05-23T13:26:14.788Z,99754.06
2023-05-23T13:28:42.464Z,99748.13
2023-05-23T13:31:10.313Z,99748.98
2023-05-23T13:33:38.456Z,99745.26
2023-05-23T13:36:06.372Z,99742.48
2023-05-23T13:38:34.029Z,99739.74
2023-05-23T13:41:01.863Z,99743.89
2023-05-23T13:43:29.544Z,99750.22
2023-05-23T13:45:57.276Z,99750.93
2023-05-23T13:48:24.975Z,99751.88
2023-05-23T13:50:52.759Z,99749.40
2023-05-23T13:53:21.848Z,99750.34
2023-05-23T13:55:50.030Z,99749.02
2023-05-23T13:58:17.821Z,99743.39
2023-05-23T14:00:45.547Z,99745.68
2023-05-23T14:03:13.318Z,99743.17
2023-05-23T14:05:41.499Z,99744.20
2023-05-23T14:08:09.286Z,99744.74
2023-05-23T14:10:36.917Z,99746.20
2023-05-23T14:13:06.501Z,99747.33
2023-05-23T14:15:35.010Z,99746.95
2023-05-23T14:18:29.117Z,99743.41
2023-05-23T14:20:56.699Z,99747.55
2023-05-23T14:23:24.313Z,99749.48
2023-05-23T14:25:52.267Z,99745.77
2023-05-23T14:28:20.075Z,99743.08
2023-05-23T14:30:47.659Z,99741.38
2023-05-23T14:33:15.768Z,99740.48
2023-05-23T14:35:43.733Z,99741.55
2023-05-23T14:38:11.696Z,99741.71
2023-05-23T14:40:39.323Z,99739.73
2023-05-23T14:43:07.207Z,99740.34
2023-05-23T14:45:34.942Z,99742.95
2023-05-23T14:48:02.757Z,99743.72
2023-05-23T14:50:30.479Z,99738.46
2023-05-23T14:52:59.927Z,99736.45
2023-05-23T14:55:27.682Z,99737.84
2023-05-23T14:57:55.338Z,99744.33
2023-05-23T15:00:23.121Z,99753.77
2023-05-23T15:03:25.717Z,99760.95
2023-05-23T15:05:55.822Z,99758.32
2023-05-23T15:08:23.637Z,99761.05
2023-05-23T15:10:51.391Z,99764.05
2023-05-23T15:13:19.191Z,99757.83
2023-05-23T15:15:47.918Z,99761.23
2023-05-23T15:18:27.850Z,99762.40
2023-05-23T15:20:59.720Z,99766.90
2023-05-23T15:23:27.329Z,99766.14
2023-05-23T15:25:55.139Z,99764.96
2023-05-23T15:28:23.084Z,99767.63
2023-05-23T15:30:51.239Z,99770.63
2023-05-23T15:33:19.012Z,99768.27
2023-05-23T15:35:46.688Z,99764.58
2023-05-23T15:38:15.514Z,99760.58
2023-05-23T15:40:44.416Z,99760.90
2023-05-23T15:43:12.272Z,99758.48
2023-05-23T15:45:39.855Z,99760.05
2023-05-23T15:48:07.583Z,99760.52
2023-05-23T15:50:35.325Z,99767.34
2023-05-23T15:53:03.011Z,99775.85
2023-05-23T15:55:31.264Z,99767.97
2023-05-23T15:57:58.847Z,99763.95
2023-05-23T16:00:26.509Z,99764.99
2023-05-23T16:02:54.300Z,99762.51
2023-05-23T16:05:22.032Z,99758.05
2023-05-23T16:07:50.372Z,99756.68
2023-05-23T16:10:18.117Z,99758.33
2023-05-23T16:12:46.597Z,99764.93
2023-05-23T16:15:14.222Z,99772.88
2023-05-23T16:17:41.837Z,99776.86
2023-05-23T16:20:10.110Z,99781.58
2023-05-23T16:22:37.765Z,99779.92
2023-05-23T16:25:06.992Z,99775.96
2023-05-23T16:27:35.095Z,99778.34
2023-05-23T16:30:02.974Z,99781.39
2023-05-23T16:32:30.707Z,99784.31
2023-05-23T16:34:58.336Z,99784.60
2023-05-23T16:37:25.946Z,99787.91
2023-05-23T16:39:53.505Z,99788.17
2023-05-23T16:42:21.280Z,99794.23
2023-05-23T16:44:49.007Z,99795.67
2023-05-23T16:47:17.233Z,99793.38
2023-05-23T16:49:45.046Z,99793.89
2023-05-23T16:52:12.817Z,99790.02
2023-05-23T16:54:40.399Z,99789.51
2023-05-23T16:57:08.015Z,99784.89
2023-05-23T16:59:35.640Z,99784.50
2023-05-23T17:02:03.553Z,99787.61
2023-05-23T17:04:31.110Z,99786.72
2023-05-23T17:06:59.090Z,99784.84
2023-05-23T17:09:26.718Z,99786.17
2023-05-23T17:11:54.362Z,99788.23
2023-05-23T17:14:22.391Z,99793.53
2023-05-23T17:16:50.856Z,99797.88
2023-05-23T17:19:18.619Z,99798.71
2023-05-23T17:21:46.283Z,99805.74
2023-05-23T17:24:13.870Z,99811.86
2023-05-23T17:26:46.706Z,99817.34
2023-05-23T17:29:23.704Z,99820.77
2023-05-23T17:31:55.634Z,99819.56
2023-05-23T17:34:33.232Z,99819.98
2023-05-23T17:37:01.110Z,99826.63
2023-05-23T17:39:28.682Z,99830.55
2023-05-23T17:41:56.420Z,99828.59
2023-05-23T17:44:24.034Z,99828.10
2023-05-23T17:47:02.452Z,99829.85
2023-05-23T17:49:30.116Z,99831.30
2023-05-23T17:51:58.037Z,99828.98
2023-05-23T17:54:25.684Z,99825.57
2023-05-23T17:56:54.104Z,99823.18
2023-05-23T17:59:22.109Z,99825.36
2023-05-23T18:01:49.732Z,99824.92
2023-05-23T18:04:17.529Z,99825.29
2023-05-23T18:06:45.292Z,99826.95
2023-05-23T18:09:12.900Z,99824.70
2023-05-23T18:11:40.926Z,99827.06
2023-05-23T18:14:08.896Z,99828.40
2023-05-23T18:16:36.890Z,99829.52
2023-05-23T18:19:05.605Z,99834.48
2023-05-23T18:21:34.928Z,99836.05
2023-05-23T18:24:04.219Z,99842.57
2023-05-23T18:26:32.142Z,99842.09
2023-05-23T18:29:01.468Z,99843.80
2023-05-23T18:31:29.085Z,99843.63
2023-05-23T18:33:56.844Z,99849.09
2023-05-23T18:36:24.449Z,99849.33
2023-05-23T18:38:52.259Z,99847.24
2023-05-23T18:41:19.881Z,99853.86
2023-05-23T18:43:48.826Z,99852.98
2023-05-23T18:46:16.707Z,99858.65
2023-05-23T18:48:44.364Z,99859.77
2023-05-23T18:51:12.689Z,99861.96
2023-05-23T18:53:42.444Z,99866.05
2023-05-23T18:56:10.887Z,99860.35
2023-05-23T18:58:38.635Z,99865.48
2023-05-23T19:01:07.252Z,99867.92
2023-05-23T19:03:37.391Z,99884.77
2023-05-23T19:06:06.110Z,99887.48
2023-05-23T19:08:34.134Z,99886.14
2023-05-23T19:11:01.910Z,99882.73
2023-05-23T19:13:29.541Z,99879.49
2023-05-23T19:15:57.165Z,99881.12
2023-05-23T19:18:24.845Z,99882.88
2023-05-23T19:20:52.540Z,99881.24
2023-05-23T19:23:20.835Z,99881.46
2023-05-23T19:25:48.551Z,99879.84
2023-05-23T19:28:16.350Z,99880.48
2023-05-23T19:30:44.780Z,99880.63
2023-05-23T19:33:12.602Z,99879.94
2023-05-23T19:35:40.268Z,99889.16
2023-05-23T19:38:08.431Z,99889.23
2023-05-23T19:40:36.159Z,99887.92
2023-05-23T19:43:03.837Z,99887.14
2023-05-23T19:45:31.913Z,99886.56
2023-05-23T19:47:59.546Z,99875.73
2023-05-23T19:50:27.344Z,99869.39
2023-05-23T19:52:54.981Z,99867.52
2023-05-23T19:55:22.713Z,99862.41
2023-05-23T19:57:51.569Z,99859.58
2023-05-23T20:00:19.394Z,99859.75
2023-05-23T20:02:47.940Z,99862.20
2023-05-23T20:05:15.602Z,99858.38
2023-05-23T20:07:43.215Z,99857.70
2023-05-23T20:10:11.532Z,99859.17
2023-05-23T20:12:39.489Z,99859.44
2023-05-23T20:15:07.804Z,99862.08
2023-05-23T20:17:36.057Z,99861.30
2023-05-23T20:20:05.008Z,99861.42
2023-05-23T20:22:32.695Z,99859.70
2023-05-23T20:25:00.283Z,99856.97
2023-05-23T20:27:27.900Z,99863.45
2023-05-23T20:29:55.564Z,99865.75
2023-05-23T20:32:23.249Z,99869.17
2023-05-23T20:34:51.174Z,99872.67
2023-05-23T20:37:19.210Z,99876.73
2023-05-23T20:39:48.520Z,99878.84
2023-05-23T20:42:16.616Z,99879.73
2023-05-23T20:44:45.043Z,99882.81
2023-05-23T20:47:13.594Z,99883.75
2023-05-23T20:49:42.513Z,99883.91
2023-05-23T20:52:10.669Z,99880.20
2023-05-23T20:54:38.376Z,99884.28
2023-05-23T20:57:06.152Z,99882.65
2023-05-23T20:59:33.727Z,99888.20
2023-05-23T21:02:01.481Z,99892.89
2023-05-23T21:04:29.143Z,99889.58
2023-05-23T21:06:56.967Z,99888.05
2023-05-23T21:09:24.685Z,99888.91
2023-05-23T21:11:52.463Z,99892.27
2023-05-23T21:14:20.027Z,99893.48
2023-05-23T21:16:47.676Z,99896.63
2023-05-23T21:19:15.359Z,99898.63
2023-05-23T21:21:43.038Z,99894.77
2023-05-23T21:24:10.760Z,99893.39
2023-05-23T21:26:38.344Z,99894.85
2023-05-23T21:29:06.075Z,99891.86
2023-05-23T21:31:41.587Z,99885.98
2023-05-23T21:34:22.227Z,99886.76
2023-05-23T21:36:51.522Z,99885.06
2023-05-23T21:39:19.786Z,99883.44
2023-05-23T21:41:47.738Z,99885.59
2023-05-23T21:44:17.762Z,99886.06
2023-05-23T21:46:45.664Z,99882.31
2023-05-23T21:49:14.331Z,99880.85
2023-05-23T21:51:42.520Z,99878.29
2023-05-23T21:54:10.141Z,99874.38
2023-05-23T21:56:37.721Z,99869.87
2023-05-23T21:59:05.304Z,99870.48
2023-05-23T22:01:33.046Z,99871.20
2023-05-23T22:04:01.391Z,99868.01
2023-05-23T22:06:29.210Z,99866.76
2023-05-23T22:08:56.836Z,99868.22
2023-05-23T22:11:24.600Z,99870.23
2023-05-23T22:13:52.219Z,99868.10
2023-05-23T22:16:19.873Z,99869.02
2023-05-23T22:18:51.861Z,99866.91
2023-05-23T22:21:19.904Z,99865.90
2023-05-23T22:23:47.617Z,99864.48
2023-05-23T22:26:15.190Z,99866.29
2023-05-23T22:28:42.928Z,99870.08
2023-05-23T22:31:12.941Z,99872.02
2023-05-23T22:33:41.832Z,99875.50
2023-05-23T22:36:10.644Z,99870.40
2023-05-23T22:38:38.798Z,99866.35
2023-05-23T22:41:06.495Z,99873.34
2023-05-23T22:43:34.085Z,99878.05
2023-05-23T22:46:01.723Z,99879.81
2023-05-23T22:48:33.978Z,99880.15
2023-05-23T22:51:02.990Z,99876.19
2023-05-23T22:53:30.646Z,99878.96
2023-05-23T22:55:58.359Z,99884.13
2023-05-23T22:58:26.184Z,99882.25
2023-05-23T23:00:53.768Z,99879.59
2023-05-23T23:03:21.568Z,99880.28
2023-05-23T23:05:49.228Z,99882.20
2023-05-23T23:08:16.891Z,99883.36
2023-05-23T23:10:44.741Z,99882.33
2023-05-23T23:13:14.337Z,99883.43
2023-05-23T23:15:43.222Z,99886.71
2023-05-23T23:18:13.784Z,99889.08
2023-05-23T23:20:41.862Z,99890.90
2023-05-23T23:23:09.721Z,99887.98
2023-05-23T23:25:38.028Z,99890.23
2023-05-23T23:28:06.396Z,99891.09
2023-05-23T23:30:34.226Z,99895.02
2023-05-23T23:33:02.066Z,99891.83
2023-05-23T23:35:29.812Z,99894.84
2023-05-23T23:37:57.402Z,99889.46
2023-05-23T23:40:24.974Z,99894.42
2023-05-23T23:42:52.534Z,99892.39
2023-05-23T23:45:20.252Z,99889.16
2023-05-23T23:47:47.895Z,99886.92
2023-05-23T23:50:15.683Z,99888.84
2023-05-23T23:52:43.584Z,99887.64
2023-05-23T23:55:11.297Z,99886.36
2023-05-23T23:57:38.940Z,99883.95
